createdAt,value
2022-10-17T09:09:37.200Z,3.15
2022-10-17T09:12:17.281Z,2.67
2022-10-17T09:14:55.876Z,3.20
2022-10-17T09:18:09.755Z,3.22
2022-10-17T09:20:46.119Z,2.83
2022-10-17T09:23:21.561Z,3.10
2022-10-17T09:25:52.866Z,3.45
2022-10-17T09:28:28.965Z,3.45
2022-10-17T09:31:06.853Z,4.22
2022-10-17T09:33:55.666Z,3.40
2022-10-17T09:36:32.561Z,3.45
2022-10-17T09:39:07.672Z,3.22
2022-10-17T09:41:45.367Z,3.50
2022-10-17T09:44:15.998Z,3.42
2022-10-17T09:47:10.849Z,3.45
2022-10-17T09:49:50.880Z,3.38
2022-10-17T09:52:25.362Z,3.63
2022-10-17T09:55:15.231Z,2.80
2022-10-17T09:58:02.875Z,2.50
2022-10-17T10:00:31.893Z,2.80
2022-10-17T10:03:23.980Z,2.90
2022-10-17T10:06:11.359Z,3.13
2022-10-17T10:08:54.970Z,2.58
2022-10-17T10:11:43.742Z,2.67
2022-10-17T10:16:49.879Z,2.97
2022-10-17T10:19:37.644Z,3.08
2022-10-17T10:22:16.657Z,3.00
2022-10-17T10:27:18.926Z,2.30
2022-10-17T10:29:52.842Z,2.88
2022-10-17T10:32:24.951Z,2.35
2022-10-17T10:35:07.845Z,3.40
2022-10-17T10:37:43.677Z,3.50
2022-10-17T10:40:41.721Z,3.90
2022-10-17T10:43:40.705Z,3.55
2022-10-17T10:46:26.721Z,3.95
2022-10-17T10:48:58.426Z,3.30
2022-10-17T10:51:35.237Z,3.33
2022-10-17T10:54:01.935Z,2.88
2022-10-17T10:56:44.148Z,1.90
2022-10-17T10:59:33.105Z,2.13
2022-10-17T11:02:25.219Z,2.15
2022-10-17T11:05:04.118Z,2.10
2022-10-17T11:07:56.184Z,2.70
2022-10-17T11:10:35.724Z,2.92
2022-10-17T11:13:20.477Z,2.15
2022-10-17T11:16:31.716Z,2.72
2022-10-17T11:19:13.780Z,2.42
2022-10-17T11:21:46.922Z,2.70
2022-10-17T11:24:56.915Z,2.65
2022-10-17T11:27:24.714Z,2.70
2022-10-17T11:29:51.721Z,2.60
2022-10-17T11:32:25.197Z,3.05
2022-10-17T11:35:00.214Z,3.63
2022-10-17T11:37:35.780Z,3.00
2022-10-17T11:40:44.352Z,2.83
2022-10-17T11:43:20.776Z,3.28
2022-10-17T11:45:56.682Z,2.75
2022-10-17T11:48:39.637Z,3.20
2022-10-17T11:54:18.999Z,2.95
2022-10-17T11:57:13.968Z,2.70
2022-10-17T11:59:54.727Z,2.67
2022-10-17T12:02:31.677Z,2.40
2022-10-17T12:05:06.888Z,2.70
2022-10-17T12:08:00.570Z,2.60
2022-10-17T12:10:50.105Z,2.30
2022-10-17T12:13:29.173Z,2.20
2022-10-17T12:15:57.453Z,2.35
2022-10-17T12:18:27.325Z,2.33
2022-10-17T12:21:00.012Z,2.72
2022-10-17T12:23:32.976Z,2.20
2022-10-17T12:26:06.753Z,2.60
2022-10-17T12:28:46.598Z,2.33
2022-10-17T12:31:16.275Z,3.97
2022-10-17T12:33:51.163Z,2.30
2022-10-17T12:36:26.725Z,2.03
2022-10-17T12:39:02.868Z,2.47
2022-10-17T12:41:38.669Z,2.50
2022-10-17T12:44:14.589Z,2.38
2022-10-17T12:47:06.138Z,2.33
2022-10-17T12:49:46.390Z,1.88
2022-10-17T12:52:31.299Z,1.88
2022-10-17T12:55:12.169Z,2.55
2022-10-17T12:57:52.952Z,2.58
2022-10-17T13:00:27.702Z,2.30
2022-10-17T13:03:03.325Z,2.35
2022-10-17T13:05:34.113Z,2.50
2022-10-17T13:08:07.399Z,2.28
2022-10-17T13:10:40.715Z,2.47
2022-10-17T13:13:25.767Z,2.20
2022-10-17T13:15:55.152Z,2.13
2022-10-17T13:18:25.171Z,2.20
2022-10-17T13:21:14.683Z,1.98
2022-10-17T13:23:41.825Z,2.20
2022-10-17T13:26:20.388Z,2.53
2022-10-17T13:29:01.750Z,2.20
2022-10-17T13:31:30.853Z,2.35
2022-10-17T13:34:01.661Z,2.28
2022-10-17T13:36:30.244Z,3.20
2022-10-17T13:39:00.279Z,2.13
2022-10-17T13:41:36.664Z,2.38
2022-10-17T13:44:15.180Z,2.05
2022-10-17T13:46:42.959Z,2.00
2022-10-17T13:49:23.195Z,2.20
2022-10-17T13:51:54.680Z,2.08
2022-10-17T13:54:56.645Z,1.98
2022-10-17T13:57:30.055Z,2.17
2022-10-17T14:00:09.899Z,2.20
2022-10-17T14:02:40.611Z,1.90
2022-10-17T14:05:19.314Z,2.15
2022-10-17T14:10:46.087Z,2.47
2022-10-17T14:13:27.499Z,2.72
2022-10-17T14:15:57.380Z,2.03
2022-10-17T14:18:36.812Z,2.47
2022-10-17T14:24:12.017Z,2.03
2022-10-17T14:27:00.924Z,2.10
2022-10-17T14:29:29.979Z,2.28
2022-10-17T14:32:00.258Z,2.40
2022-10-17T14:34:34.011Z,1.92
2022-10-17T14:37:01.954Z,2.42
2022-10-17T14:39:30.215Z,2.00
2022-10-17T14:41:59.688Z,2.15
2022-10-17T14:44:35.683Z,2.22
2022-10-17T14:47:24.058Z,2.22
2022-10-17T14:50:21.152Z,2.35
2022-10-17T14:53:03.340Z,2.28
2022-10-17T14:55:32.747Z,2.30
2022-10-17T14:57:59.688Z,2.05
2022-10-17T15:00:27.767Z,2.33
2022-10-17T15:02:56.219Z,2.40
2022-10-17T15:05:24.069Z,2.17
2022-10-17T15:07:52.154Z,2.35
2022-10-17T15:10:37.030Z,2.25
2022-10-17T15:13:27.948Z,2.38
2022-10-17T15:15:55.283Z,2.10
2022-10-17T15:18:22.143Z,2.15
2022-10-17T15:21:04.859Z,2.40
2022-10-17T15:23:34.145Z,2.28
2022-10-17T15:26:02.493Z,2.10
2022-10-17T15:28:30.896Z,2.03
2022-10-17T15:30:57.783Z,2.20
2022-10-17T15:33:24.559Z,2.35
2022-10-17T15:35:52.512Z,2.00
2022-10-17T15:38:19.724Z,2.03
2022-10-17T15:40:48.932Z,2.60
2022-10-17T15:43:19.668Z,2.47
2022-10-17T15:45:47.566Z,2.15
2022-10-17T15:48:27.497Z,2.38
2022-10-17T15:50:55.371Z,2.50
2022-10-17T15:53:23.594Z,2.42
2022-10-17T15:55:51.067Z,2.28
2022-10-17T15:58:18.952Z,2.42
2022-10-17T16:00:46.396Z,2.13
2022-10-17T16:03:14.682Z,2.85
2022-10-17T16:05:43.431Z,3.05
2022-10-17T16:08:10.438Z,3.45
2022-10-17T16:10:40.177Z,3.03
2022-10-17T16:13:18.007Z,3.17
2022-10-17T16:15:44.784Z,3.35
2022-10-17T16:18:11.627Z,3.67
2022-10-17T16:20:39.278Z,3.05
2022-10-17T16:23:07.720Z,3.38
2022-10-17T16:25:35.157Z,3.55
2022-10-17T16:28:03.206Z,3.40
2022-10-17T16:30:32.260Z,3.45
2022-10-17T16:32:59.084Z,3.25
2022-10-17T16:35:33.260Z,2.90
2022-10-17T16:38:04.046Z,3.08
2022-10-17T16:40:38.509Z,2.72
2022-10-17T16:43:05.380Z,3.10
2022-10-17T16:45:32.615Z,3.05
2022-10-17T16:47:59.320Z,3.00
2022-10-17T16:50:26.135Z,3.28
2022-10-17T16:52:52.859Z,3.50
2022-10-17T16:55:21.588Z,6.53
2022-10-17T16:57:49.220Z,8.43
2022-10-17T17:00:17.326Z,3.50
2022-10-17T17:02:44.764Z,3.60
2022-10-17T17:05:11.997Z,3.22
2022-10-17T17:07:40.099Z,3.15
2022-10-17T17:10:07.184Z,3.13
2022-10-17T17:12:35.677Z,3.13
2022-10-17T17:15:02.873Z,3.00
2022-10-17T17:17:44.355Z,2.83
2022-10-17T17:20:17.119Z,2.83
2022-10-17T17:22:43.855Z,2.60
2022-10-17T17:25:14.813Z,3.60
2022-10-17T17:27:41.463Z,3.30
2022-10-17T17:30:08.655Z,3.60
2022-10-17T17:32:35.357Z,3.33
2022-10-17T17:35:03.202Z,3.53
2022-10-17T17:37:30.090Z,4.13
2022-10-17T17:39:56.964Z,3.20
2022-10-17T17:42:23.666Z,3.10
2022-10-17T17:44:50.891Z,3.50
2022-10-17T17:47:17.701Z,4.70
2022-10-17T17:49:44.415Z,4.28
2022-10-17T17:52:11.100Z,4.07
2022-10-17T17:54:40.773Z,3.83
2022-10-17T17:57:08.030Z,3.45
2022-10-17T17:59:38.287Z,3.72
2022-10-17T18:02:06.864Z,3.10
2022-10-17T18:04:35.677Z,3.20
2022-10-17T18:07:03.531Z,3.55
2022-10-17T18:09:31.214Z,3.63
2022-10-17T18:11:57.860Z,3.80
2022-10-17T18:14:25.749Z,3.70
2022-10-17T18:16:52.529Z,3.20
2022-10-17T18:19:19.415Z,3.60
2022-10-17T18:21:46.322Z,3.72
2022-10-17T18:24:12.992Z,3.15
2022-10-17T18:26:40.810Z,3.30
2022-10-17T18:29:07.563Z,3.35
2022-10-17T18:31:37.281Z,3.53
2022-10-17T18:34:05.415Z,3.47
2022-10-17T18:36:33.970Z,3.30
2022-10-17T18:39:01.655Z,3.20
2022-10-17T18:41:28.841Z,3.50
2022-10-17T18:43:56.713Z,3.50
2022-10-17T18:46:29.429Z,3.72
2022-10-17T18:48:56.781Z,4.18
2022-10-17T18:51:27.897Z,5.70
2022-10-17T18:53:58.861Z,5.68
2022-10-17T18:56:26.429Z,5.30
2022-10-17T19:01:24.662Z,7.75
2022-10-17T19:03:53.111Z,6.47
2022-10-17T19:06:23.221Z,6.35
2022-10-17T19:08:52.084Z,6.25
2022-10-17T19:11:25.251Z,6.55
2022-10-17T19:13:52.882Z,6.05
2022-10-17T19:18:51.963Z,6.25
2022-10-17T19:21:21.866Z,5.82
2022-10-17T19:23:54.566Z,6.53
2022-10-17T19:26:23.239Z,6.60
2022-10-17T19:28:53.387Z,6.43
2022-10-17T19:31:26.846Z,5.95
2022-10-17T19:33:55.292Z,6.97
2022-10-17T19:36:27.602Z,6.43
2022-10-17T19:38:59.610Z,6.93
2022-10-17T19:41:26.918Z,8.30
2022-10-17T19:43:53.915Z,7.68
2022-10-17T19:46:25.957Z,7.80
2022-10-17T19:48:53.010Z,8.15
2022-10-17T19:51:24.533Z,8.98
2022-10-17T19:53:52.760Z,10.13
2022-10-17T19:56:21.078Z,9.45
2022-10-17T19:58:49.940Z,10.40
2022-10-17T20:01:27.282Z,11.45
2022-10-17T20:03:55.289Z,11.13
2022-10-17T20:06:22.779Z,9.88
2022-10-17T20:08:50.331Z,11.57
2022-10-17T20:13:51.322Z,9.70
2022-10-17T20:16:23.997Z,9.05
2022-10-17T20:18:52.187Z,8.50
2022-10-17T20:21:28.311Z,8.25
2022-10-17T20:23:55.211Z,8.50
2022-10-17T20:26:37.456Z,8.02
2022-10-17T20:29:16.670Z,7.95
2022-10-17T20:31:45.007Z,8.73
2022-10-17T20:34:14.815Z,9.80
2022-10-17T20:36:42.116Z,9.80
2022-10-17T20:39:11.131Z,9.00
2022-10-17T20:41:37.947Z,9.73
2022-10-17T20:44:06.971Z,9.30
2022-10-17T20:46:38.491Z,9.30
2022-10-17T20:49:17.973Z,11.75
2022-10-17T20:51:45.361Z,9.82
2022-10-17T20:54:12.721Z,13.32
2022-10-17T20:56:39.736Z,9.50
2022-10-17T20:59:12.264Z,9.75
2022-10-17T21:01:38.988Z,9.90
2022-10-17T21:04:33.250Z,10.20
2022-10-17T21:06:53.918Z,8.82
2022-10-17T21:09:21.747Z,9.10
2022-10-17T21:11:51.328Z,8.20
2022-10-17T21:14:18.468Z,8.90
2022-10-17T21:16:45.151Z,9.68
2022-10-17T21:19:12.642Z,8.25
2022-10-17T21:21:41.942Z,8.50
2022-10-17T21:24:14.371Z,8.63
2022-10-17T21:26:43.368Z,7.45
2022-10-17T21:29:11.755Z,7.10
2022-10-17T21:31:41.005Z,7.38
2022-10-17T21:34:14.575Z,8.25
2022-10-17T21:36:41.755Z,7.70
2022-10-17T21:39:09.613Z,8.77
2022-10-17T21:41:37.871Z,8.30
2022-10-17T21:44:07.072Z,7.68
2022-10-17T21:46:34.361Z,8.60
2022-10-17T21:49:01.416Z,8.18
2022-10-17T21:51:28.638Z,7.47
2022-10-17T21:53:56.965Z,6.85
2022-10-17T21:56:32.464Z,7.40
2022-10-17T21:58:59.907Z,8.13
2022-10-17T22:01:32.656Z,8.38
2022-10-17T22:04:03.219Z,8.27
2022-10-17T22:06:40.998Z,7.82
2022-10-17T22:09:17.375Z,7.47
2022-10-17T22:11:49.821Z,8.27
2022-10-17T22:14:18.864Z,8.10
2022-10-17T22:16:46.976Z,8.68
2022-10-17T22:19:17.157Z,8.73
2022-10-17T22:21:44.070Z,8.60
2022-10-17T22:24:13.101Z,9.65
2022-10-17T22:26:40.192Z,8.48
2022-10-17T22:29:08.612Z,8.73
2022-10-17T22:31:35.940Z,8.75
2022-10-17T22:34:04.394Z,8.95
2022-10-17T22:36:32.412Z,9.02
2022-10-17T22:38:59.162Z,8.45
2022-10-17T22:41:25.914Z,10.00
2022-10-17T22:43:52.655Z,9.27
2022-10-17T22:46:19.352Z,9.03
2022-10-17T22:48:46.072Z,9.53
2022-10-17T22:51:12.987Z,9.07
2022-10-17T22:53:39.818Z,8.65
2022-10-17T22:56:10.913Z,9.00
2022-10-17T22:58:38.330Z,8.75
2022-10-17T23:01:06.687Z,9.48
2022-10-17T23:03:34.440Z,9.13
2022-10-17T23:08:28.769Z,8.73
2022-10-17T23:10:55.608Z,8.70
2022-10-17T23:13:22.435Z,9.40
2022-10-17T23:15:56.739Z,9.20
2022-10-17T23:18:25.286Z,7.65
2022-10-17T23:20:53.616Z,7.78
2022-10-17T23:23:20.339Z,7.90
2022-10-17T23:25:47.177Z,7.63
2022-10-17T23:28:14.143Z,7.30
2022-10-17T23:30:42.393Z,8.27
2022-10-17T23:33:11.716Z,6.75
2022-10-17T23:35:39.721Z,6.07
2022-10-17T23:38:07.703Z,5.63
2022-10-17T23:40:35.320Z,5.82
2022-10-17T23:45:36.090Z,5.30
2022-10-17T23:48:04.897Z,6.15
2022-10-17T23:50:31.706Z,5.07
2022-10-17T23:52:58.363Z,4.90
2022-10-17T23:55:25.082Z,5.27
2022-10-17T23:57:51.895Z,4.93
